createdAt,value
2023-04-03T00:00:08.452Z,83.84
2023-04-03T00:02:11.666Z,84.51
2023-04-03T00:04:14.696Z,83.27
2023-04-03T00:06:17.629Z,83.89
2023-04-03T00:08:21.074Z,84.22
2023-04-03T00:10:24.094Z,84.15
2023-04-03T00:12:28.396Z,83.17
2023-04-03T00:14:31.557Z,82.95
2023-04-03T00:16:34.523Z,82.82
2023-04-03T00:18:37.850Z,83.82
2023-04-03T00:20:41.331Z,84.72
2023-04-03T00:22:44.237Z,83.15
2023-04-03T00:24:47.107Z,83.56
2023-04-03T00:26:50.204Z,84.67
2023-04-03T00:28:54.691Z,83.06
2023-04-03T00:30:57.669Z,84.32
2023-04-03T00:33:01.979Z,83.09
2023-04-03T00:35:05.552Z,82.90
2023-04-03T00:37:08.668Z,83.23
2023-04-03T00:39:11.741Z,83.32
2023-04-03T00:41:14.702Z,83.73
2023-04-03T00:43:20.072Z,83.06
2023-04-03T00:45:33.860Z,83.71
2023-04-03T00:47:36.887Z,83.63
2023-04-03T00:49:41.429Z,83.61
2023-04-03T00:51:44.506Z,82.47
2023-04-03T00:53:52.044Z,83.00
2023-04-03T00:55:57.299Z,81.85
2023-04-03T00:58:02.102Z,84.16
2023-04-03T01:00:10.333Z,82.31
2023-04-03T01:02:14.912Z,81.78
2023-04-03T01:04:29.703Z,83.33
2023-04-03T01:06:36.596Z,83.37
2023-04-03T01:08:46.095Z,82.80
2023-04-03T01:10:49.201Z,82.48
2023-04-03T01:12:53.752Z,82.87
2023-04-03T01:14:58.737Z,82.88
2023-04-03T01:17:01.597Z,83.77
2023-04-03T01:19:10.136Z,82.05
2023-04-03T01:21:52.080Z,82.46
2023-04-03T01:24:13.126Z,82.22
2023-04-03T01:26:16.616Z,82.80
2023-04-03T01:28:23.137Z,82.26
2023-04-03T01:30:31.429Z,81.49
2023-04-03T01:32:37.254Z,82.21
2023-04-03T01:34:40.165Z,80.10
2023-04-03T01:36:43.196Z,81.21
2023-04-03T01:38:46.502Z,81.58
2023-04-03T01:40:49.476Z,78.93
2023-04-03T01:42:52.356Z,79.47
2023-04-03T01:44:55.447Z,79.91
2023-04-03T01:46:58.408Z,79.55
2023-04-03T01:49:05.877Z,80.82
2023-04-03T01:51:08.792Z,79.67
2023-04-03T01:53:11.954Z,79.86
2023-04-03T01:55:14.920Z,79.38
2023-04-03T01:57:18.135Z,79.09
2023-04-03T01:59:21.097Z,79.24
2023-04-03T02:01:24.544Z,78.82
2023-04-03T02:03:27.774Z,77.44
2023-04-03T02:05:32.421Z,76.85
2023-04-03T02:07:35.256Z,78.45
2023-04-03T02:09:38.509Z,77.86
2023-04-03T02:11:41.585Z,78.46
2023-04-03T02:13:45.147Z,78.98
2023-04-03T02:15:49.026Z,78.91
2023-04-03T02:17:53.763Z,80.36
2023-04-03T02:19:57.343Z,78.81
2023-04-03T02:22:01.763Z,79.57
2023-04-03T02:24:04.792Z,78.85
2023-04-03T02:26:10.551Z,79.24
2023-04-03T02:28:13.422Z,80.21
2023-04-03T02:30:16.950Z,80.22
2023-04-03T02:32:20.062Z,80.67
2023-04-03T02:34:23.692Z,79.40
2023-04-03T02:36:27.845Z,80.13
2023-04-03T02:38:36.853Z,80.50
2023-04-03T02:40:40.085Z,80.93
2023-04-03T02:42:43.069Z,81.39
2023-04-03T02:44:46.220Z,79.96
2023-04-03T02:46:49.153Z,81.40
2023-04-03T02:48:52.073Z,80.85
2023-04-03T02:50:55.942Z,80.77
2023-04-03T02:52:58.833Z,79.16
2023-04-03T02:55:03.790Z,81.10
2023-04-03T02:57:10.129Z,80.02
2023-04-03T02:59:13.216Z,80.53
2023-04-03T03:01:17.279Z,81.39
2023-04-03T03:03:20.425Z,81.22
2023-04-03T03:05:23.441Z,81.62
2023-04-03T03:07:27.355Z,81.46
2023-04-03T03:09:30.807Z,81.33
2023-04-03T03:11:36.527Z,80.57
2023-04-03T03:13:39.667Z,82.10
2023-04-03T03:15:42.579Z,81.91
2023-04-03T03:17:45.586Z,81.14
2023-04-03T03:19:48.748Z,81.26
2023-04-03T03:21:52.374Z,82.18
2023-04-03T03:23:56.110Z,81.08
2023-04-03T03:26:01.080Z,81.10
2023-04-03T03:28:06.023Z,81.09
2023-04-03T03:30:09.892Z,82.26
2023-04-03T03:32:13.171Z,82.05
2023-04-03T03:34:16.213Z,82.61
2023-04-03T03:36:19.345Z,82.86
2023-04-03T03:38:22.757Z,82.57
2023-04-03T03:40:25.701Z,82.78
2023-04-03T03:42:28.563Z,82.77
2023-04-03T03:44:33.062Z,82.20
2023-04-03T03:46:36.466Z,82.01
2023-04-03T03:48:40.102Z,82.64
2023-04-03T03:50:43.033Z,82.93
2023-04-03T03:52:46.136Z,83.61
2023-04-03T03:54:49.022Z,83.63
2023-04-03T03:56:52.865Z,83.04
2023-04-03T03:58:57.486Z,83.70
2023-04-03T04:01:03.814Z,82.60
2023-04-03T04:03:07.768Z,82.73
2023-04-03T04:05:11.736Z,82.44
2023-04-03T04:07:14.905Z,82.92
2023-04-03T04:09:18.184Z,82.53
2023-04-03T04:11:23.292Z,83.63
2023-04-03T04:13:28.244Z,83.02
2023-04-03T04:15:32.384Z,83.73
2023-04-03T04:17:37.584Z,83.49
2023-04-03T04:19:43.088Z,83.68
2023-04-03T04:21:46.926Z,83.93
2023-04-03T04:23:50.346Z,83.15
2023-04-03T04:25:53.474Z,83.17
2023-04-03T04:27:57.195Z,83.32
2023-04-03T04:30:00.232Z,83.50
2023-04-03T04:32:04.056Z,83.73
2023-04-03T04:34:08.864Z,83.35
2023-04-03T04:36:13.300Z,83.55
2023-04-03T04:38:16.377Z,83.05
2023-04-03T04:40:19.692Z,83.52
2023-04-03T04:42:23.437Z,83.48
2023-04-03T04:44:26.725Z,83.22
2023-04-03T04:46:30.033Z,83.94
2023-04-03T04:48:36.288Z,83.31
2023-04-03T04:50:42.202Z,83.30
2023-04-03T04:52:44.794Z,83.85
2023-04-03T04:54:47.358Z,83.14
2023-04-03T04:56:49.984Z,82.95
2023-04-03T04:58:52.783Z,82.56
2023-04-03T05:00:59.924Z,83.21
2023-04-03T05:03:02.900Z,83.48
2023-04-03T05:05:06.093Z,83.20
2023-04-03T05:07:11.473Z,83.55
2023-04-03T05:09:30.562Z,82.89
2023-04-03T05:11:33.245Z,82.94
2023-04-03T05:13:36.545Z,82.76
2023-04-03T05:15:39.553Z,82.51
2023-04-03T05:17:42.297Z,80.41
2023-04-03T05:19:48.507Z,81.18
2023-04-03T05:21:51.809Z,77.42
2023-04-03T05:23:54.809Z,75.73
2023-04-03T05:25:59.489Z,72.67
2023-04-03T05:28:02.629Z,72.95
2023-04-03T05:30:06.287Z,73.61
2023-04-03T05:32:10.699Z,73.57
2023-04-03T05:34:13.212Z,73.90
2023-04-03T05:36:16.965Z,71.61
2023-04-03T05:38:22.886Z,71.03
2023-04-03T05:40:26.936Z,69.07
2023-04-03T05:42:33.193Z,66.97
2023-04-03T05:44:36.523Z,67.29
2023-04-03T05:46:39.446Z,65.46
2023-04-03T05:48:44.986Z,66.20
2023-04-03T05:50:51.497Z,64.20
2023-04-03T05:53:00.252Z,66.17
2023-04-03T05:55:06.632Z,65.28
2023-04-03T05:57:11.038Z,63.49
2023-04-03T05:59:15.144Z,61.01
2023-04-03T06:01:18.302Z,61.53
2023-04-03T06:03:21.960Z,61.14
2023-04-03T06:05:25.273Z,62.35
2023-04-03T06:07:29.638Z,60.30
2023-04-03T06:09:32.350Z,60.95
2023-04-03T06:11:35.244Z,61.29
2023-04-03T06:13:38.555Z,61.19
2023-04-03T06:15:42.544Z,57.03
2023-04-03T06:17:45.229Z,54.79
2023-04-03T06:19:48.562Z,55.02
2023-04-03T06:21:52.044Z,52.58
2023-04-03T06:23:54.644Z,50.87
2023-04-03T06:25:57.389Z,50.63
2023-04-03T06:28:00.004Z,52.84
2023-04-03T06:30:02.545Z,51.96
2023-04-03T06:32:06.744Z,50.36
2023-04-03T06:34:09.931Z,51.69
2023-04-03T06:36:13.598Z,51.76
2023-04-03T06:38:16.702Z,52.34
2023-04-03T06:40:22.015Z,51.40
2023-04-03T06:42:24.695Z,52.83
2023-04-03T06:44:36.593Z,53.54
2023-04-03T06:46:39.989Z,56.80
2023-04-03T06:48:44.133Z,55.47
2023-04-03T06:50:46.913Z,59.03
2023-04-03T06:52:49.353Z,56.94
2023-04-03T06:54:58.264Z,60.14
2023-04-03T06:57:01.152Z,61.11
2023-04-03T06:59:03.728Z,62.26
2023-04-03T07:01:06.244Z,65.42
2023-04-03T07:03:09.087Z,65.92
2023-04-03T07:05:13.098Z,67.89
2023-04-03T07:07:16.277Z,67.42
2023-04-03T07:09:18.711Z,67.70
2023-04-03T07:11:21.895Z,68.40
2023-04-03T07:13:24.435Z,69.41
2023-04-03T07:15:27.418Z,67.42
2023-04-03T07:17:30.109Z,67.46
2023-04-03T07:19:32.913Z,63.68
2023-04-03T07:21:36.939Z,64.04
2023-04-03T07:23:39.583Z,57.84
2023-04-03T07:25:43.900Z,59.29
2023-04-03T07:27:46.584Z,60.97
2023-04-03T07:29:49.956Z,58.93
2023-04-03T07:31:52.797Z,60.08
2023-04-03T07:33:55.314Z,57.27
2023-04-03T07:35:58.318Z,55.75
2023-04-03T07:38:02.864Z,59.20
2023-04-03T07:40:06.029Z,60.88
2023-04-03T07:42:08.784Z,58.67
2023-04-03T07:44:11.763Z,59.54
2023-04-03T07:46:14.370Z,55.41
2023-04-03T07:48:17.382Z,54.63
2023-04-03T07:50:20.214Z,51.39
2023-04-03T07:52:22.895Z,50.87
2023-04-03T07:54:27.256Z,51.40
2023-04-03T07:56:29.881Z,55.32
2023-04-03T07:58:32.704Z,57.22
2023-04-03T08:00:35.334Z,56.12
2023-04-03T08:02:38.398Z,56.26
2023-04-03T08:04:41.223Z,55.88
2023-04-03T08:06:46.962Z,55.29
2023-04-03T08:08:50.137Z,56.10
2023-04-03T08:10:54.729Z,57.47
2023-04-03T08:12:57.398Z,54.56
2023-04-03T08:15:01.965Z,55.32
2023-04-03T08:17:06.298Z,55.93
2023-04-03T08:19:15.149Z,55.24
2023-04-03T08:21:21.803Z,52.27
2023-04-03T08:23:24.349Z,53.48
2023-04-03T08:25:27.271Z,51.91
2023-04-03T08:27:31.452Z,53.01
2023-04-03T08:29:34.791Z,51.63
2023-04-03T08:31:38.052Z,51.57
2023-04-03T08:33:40.985Z,50.90
2023-04-03T08:35:43.908Z,51.39
2023-04-03T08:37:46.818Z,50.02
2023-04-03T08:39:49.345Z,50.06
2023-04-03T08:41:51.984Z,49.46
2023-04-03T08:44:10.456Z,50.36
2023-04-03T08:46:15.087Z,47.45
2023-04-03T08:48:20.747Z,47.50
2023-04-03T08:50:26.474Z,48.00
2023-04-03T08:52:33.464Z,49.24
2023-04-03T08:54:39.085Z,46.58
2023-04-03T08:56:42.319Z,49.79
2023-04-03T08:58:49.026Z,48.65
2023-04-03T09:00:55.411Z,49.88
2023-04-03T09:02:58.422Z,49.06
2023-04-03T09:05:01.005Z,45.88
2023-04-03T09:07:08.815Z,50.77
2023-04-03T09:09:15.020Z,48.71
2023-04-03T09:11:23.264Z,50.65
2023-04-03T09:13:28.802Z,50.12
2023-04-03T09:15:39.128Z,50.63
2023-04-03T09:17:49.405Z,48.33
2023-04-03T09:19:55.873Z,48.24
2023-04-03T09:21:58.724Z,48.92
2023-04-03T09:24:03.033Z,48.70
2023-04-03T09:26:10.444Z,47.47
2023-04-03T09:28:13.461Z,46.56
2023-04-03T09:30:17.529Z,45.63
2023-04-03T09:32:22.583Z,45.37
2023-04-03T09:34:28.857Z,46.48
2023-04-03T09:36:44.773Z,45.32
2023-04-03T09:38:47.215Z,42.96
2023-04-03T09:40:50.872Z,47.13
2023-04-03T09:43:00.767Z,47.50
2023-04-03T09:45:06.220Z,47.60
2023-04-03T09:47:19.926Z,45.86
2023-04-03T09:49:22.619Z,45.14
2023-04-03T09:51:29.177Z,45.18
2023-04-03T09:53:33.273Z,44.20
2023-04-03T09:55:43.365Z,45.01
2023-04-03T09:57:46.486Z,45.02
2023-04-03T09:59:57.547Z,44.74
2023-04-03T10:02:01.436Z,43.03
2023-04-03T10:04:05.681Z,44.19
2023-04-03T10:06:22.210Z,43.33
2023-04-03T10:08:28.214Z,43.89
2023-04-03T10:10:30.936Z,45.55
2023-04-03T10:12:33.545Z,45.01
2023-04-03T10:14:36.803Z,44.29
2023-04-03T10:16:43.165Z,43.78
2023-04-03T10:18:48.294Z,43.39
2023-04-03T10:20:53.521Z,42.95
2023-04-03T10:23:02.432Z,43.34
2023-04-03T10:25:13.942Z,41.96
2023-04-03T10:27:20.263Z,42.52
2023-04-03T10:29:27.433Z,41.77
2023-04-03T10:31:33.062Z,43.38
2023-04-03T10:33:41.480Z,40.86
2023-04-03T10:35:47.439Z,40.97
2023-04-03T10:37:59.471Z,43.32
2023-04-03T10:40:03.615Z,40.13
2023-04-03T10:42:17.085Z,39.83
2023-04-03T10:44:27.550Z,39.04
2023-04-03T10:46:33.830Z,39.97
2023-04-03T10:48:48.431Z,40.20
2023-04-03T10:50:56.351Z,40.57
2023-04-03T10:53:02.564Z,39.79
2023-04-03T10:55:11.963Z,40.70
2023-04-03T10:57:16.168Z,45.14
2023-04-03T10:59:22.581Z,40.58
2023-04-03T11:01:27.487Z,41.39
2023-04-03T11:03:33.327Z,40.76
2023-04-03T11:05:38.447Z,40.12
2023-04-03T11:07:42.277Z,39.49
2023-04-03T11:09:47.856Z,40.21
2023-04-03T11:11:52.938Z,41.02
2023-04-03T11:14:02.000Z,40.40
2023-04-03T11:16:05.442Z,40.57
2023-04-03T11:18:12.008Z,42.99
2023-04-03T11:20:19.178Z,42.22
2023-04-03T11:22:24.705Z,40.75
2023-04-03T11:24:29.188Z,43.35
2023-04-03T11:26:34.162Z,42.59
2023-04-03T11:28:37.585Z,40.42
2023-04-03T11:30:44.977Z,40.78
2023-04-03T11:32:59.114Z,41.25
2023-04-03T11:35:03.016Z,42.05
2023-04-03T11:37:07.314Z,41.06
2023-04-03T11:39:18.326Z,41.08
2023-04-03T11:41:26.162Z,40.62
2023-04-03T11:43:30.708Z,42.37
2023-04-03T11:45:38.389Z,40.05
2023-04-03T11:47:49.632Z,39.27
2023-04-03T11:50:00.820Z,38.09
2023-04-03T11:52:03.833Z,39.07
2023-04-03T11:54:21.044Z,37.14
2023-04-03T11:56:34.210Z,38.38
2023-04-03T11:58:37.573Z,42.23
2023-04-03T12:00:57.171Z,39.75
2023-04-03T12:03:01.308Z,42.29
2023-04-03T12:05:22.630Z,39.66
2023-04-03T12:07:25.234Z,41.23
2023-04-03T12:09:33.587Z,40.81
2023-04-03T12:11:37.220Z,41.71
2023-04-03T12:13:41.291Z,41.39
2023-04-03T12:15:50.749Z,41.73
2023-04-03T12:17:53.479Z,41.90
2023-04-03T12:19:57.887Z,40.04
2023-04-03T12:22:24.508Z,37.84
2023-04-03T12:24:27.950Z,36.11
2023-04-03T12:26:42.124Z,37.14
2023-04-03T12:28:52.443Z,37.49
2023-04-03T12:30:55.181Z,38.65
2023-04-03T12:33:13.861Z,38.96
2023-04-03T12:35:22.029Z,40.50
2023-04-03T12:37:35.763Z,38.70
2023-04-03T12:39:56.119Z,40.58
2023-04-03T12:42:04.905Z,40.82
2023-04-03T12:44:25.507Z,40.29
2023-04-03T12:46:30.004Z,38.55
2023-04-03T12:48:33.811Z,39.42
2023-04-03T12:50:37.897Z,35.82
2023-04-03T12:52:43.099Z,39.40
2023-04-03T12:54:47.086Z,36.80
2023-04-03T12:56:49.820Z,39.55
2023-04-03T12:58:53.052Z,39.75
2023-04-03T13:01:02.697Z,38.40
2023-04-03T13:03:06.393Z,38.71
2023-04-03T13:05:10.215Z,38.17
2023-04-03T13:07:21.732Z,38.31
2023-04-03T13:09:26.696Z,38.75
2023-04-03T13:11:32.367Z,38.06
2023-04-03T13:13:34.960Z,38.47
2023-04-03T13:15:43.166Z,40.47
2023-04-03T13:17:46.136Z,39.71
2023-04-03T13:19:48.788Z,39.27
2023-04-03T13:21:54.525Z,40.66
2023-04-03T13:24:13.848Z,39.84
2023-04-03T13:26:18.699Z,38.75
2023-04-03T13:28:23.297Z,38.76
2023-04-03T13:30:27.779Z,37.50
2023-04-03T13:32:31.329Z,37.14
2023-04-03T13:34:37.892Z,35.82
2023-04-03T13:36:41.739Z,37.73
2023-04-03T13:38:44.280Z,37.94
2023-04-03T13:40:52.309Z,37.32
2023-04-03T13:43:02.820Z,38.55
2023-04-03T13:45:12.506Z,40.12
2023-04-03T13:47:20.172Z,41.06
2023-04-03T13:49:23.918Z,38.17
2023-04-03T13:51:27.557Z,39.46
2023-04-03T13:53:32.450Z,39.61
2023-04-03T13:55:36.713Z,39.53
2023-04-03T13:57:49.595Z,39.28
2023-04-03T13:59:52.639Z,38.81
2023-04-03T14:01:56.421Z,38.13
2023-04-03T14:04:00.094Z,38.04
2023-04-03T14:06:03.026Z,37.36
2023-04-03T14:08:05.775Z,38.79
2023-04-03T14:10:08.633Z,39.14
2023-04-03T14:12:30.225Z,37.60
2023-04-03T14:14:36.912Z,36.12
2023-04-03T14:16:42.221Z,37.30
2023-04-03T14:18:45.154Z,36.98
2023-04-03T14:20:48.120Z,34.18
2023-04-03T14:22:52.163Z,36.07
2023-04-03T14:24:54.965Z,37.55
2023-04-03T14:26:58.614Z,35.56
2023-04-03T14:29:01.267Z,34.20
2023-04-03T14:31:05.227Z,36.08
2023-04-03T14:33:08.267Z,36.69
2023-04-03T14:35:10.963Z,36.15
2023-04-03T14:37:14.546Z,37.37
2023-04-03T14:39:19.014Z,40.07
2023-04-03T14:41:23.499Z,39.24
2023-04-03T14:43:26.544Z,41.10
2023-04-03T14:45:29.251Z,41.33
2023-04-03T14:47:33.642Z,41.72
2023-04-03T14:49:36.281Z,41.78
2023-04-03T14:51:39.629Z,41.99
2023-04-03T14:53:43.212Z,42.09
2023-04-03T14:55:46.745Z,41.17
2023-04-03T14:57:49.315Z,38.02
2023-04-03T14:59:51.786Z,39.52
2023-04-03T15:01:54.525Z,41.47
2023-04-03T15:03:58.759Z,42.21
2023-04-03T15:06:01.455Z,42.05
2023-04-03T15:08:04.167Z,42.17
2023-04-03T15:10:16.309Z,43.60
2023-04-03T15:12:18.719Z,43.87
2023-04-03T15:14:35.313Z,41.16
2023-04-03T15:16:40.210Z,43.15
2023-04-03T15:18:43.094Z,43.85
2023-04-03T15:20:48.635Z,43.67
2023-04-03T15:22:51.635Z,44.50
2023-04-03T15:24:54.155Z,42.58
2023-04-03T15:26:56.835Z,43.22
2023-04-03T15:28:59.435Z,43.81
2023-04-03T15:31:02.064Z,44.46
2023-04-03T15:33:04.648Z,44.36
2023-04-03T15:35:07.673Z,43.91
2023-04-03T15:37:11.847Z,43.62
2023-04-03T15:39:14.423Z,45.81
2023-04-03T15:41:17.015Z,44.63
2023-04-03T15:43:19.624Z,42.94
2023-04-03T15:45:23.104Z,44.11
2023-04-03T15:47:26.127Z,45.15
2023-04-03T15:49:28.734Z,46.28
2023-04-03T15:51:31.554Z,46.17
2023-04-03T15:53:35.535Z,45.30
2023-04-03T15:55:39.734Z,45.77
2023-04-03T15:57:42.588Z,45.34
2023-04-03T15:59:45.445Z,45.61
2023-04-03T16:01:48.347Z,45.90
2023-04-03T16:03:51.217Z,47.85
2023-04-03T16:05:54.189Z,47.86
2023-04-03T16:07:57.063Z,46.57
2023-04-03T16:10:01.196Z,45.59
2023-04-03T16:12:04.122Z,45.74
2023-04-03T16:14:06.724Z,43.75
2023-04-03T16:16:09.460Z,45.96
2023-04-03T16:18:12.012Z,45.43
2023-04-03T16:20:15.285Z,45.33
2023-04-03T16:22:18.030Z,46.19
2023-04-03T16:24:20.635Z,45.83
2023-04-03T16:26:24.661Z,44.70
2023-04-03T16:28:27.374Z,45.78
2023-04-03T16:30:29.901Z,45.14
2023-04-03T16:32:32.757Z,45.29
2023-04-03T16:34:35.333Z,47.42
2023-04-03T16:36:38.850Z,47.15
2023-04-03T16:38:41.658Z,47.28
2023-04-03T16:40:44.603Z,47.12
2023-04-03T16:42:48.604Z,46.95
2023-04-03T16:44:51.292Z,47.73
2023-04-03T16:46:54.073Z,47.67
2023-04-03T16:48:56.705Z,47.11
2023-04-03T16:50:59.935Z,47.25
2023-04-03T16:53:04.293Z,47.94
2023-04-03T16:55:07.508Z,48.31
2023-04-03T16:57:10.108Z,47.83
2023-04-03T16:59:14.133Z,46.98
2023-04-03T17:01:17.551Z,47.49
2023-04-03T17:03:20.205Z,47.21
2023-04-03T17:05:22.919Z,48.63
2023-04-03T17:07:26.148Z,48.29
2023-04-03T17:09:28.737Z,48.32
2023-04-03T17:11:31.788Z,48.82
2023-04-03T17:13:35.104Z,48.47
2023-04-03T17:15:39.301Z,49.26
2023-04-03T17:17:42.245Z,48.99
2023-04-03T17:19:45.133Z,49.25
2023-04-03T17:21:47.728Z,49.51
2023-04-03T17:23:52.473Z,48.72
2023-04-03T17:25:55.567Z,50.21
2023-04-03T17:27:58.122Z,49.98
2023-04-03T17:30:01.160Z,50.71
2023-04-03T17:32:05.355Z,49.88
2023-04-03T17:34:07.972Z,50.20
2023-04-03T17:36:10.440Z,51.20
2023-04-03T17:38:12.971Z,50.24
2023-04-03T17:40:15.405Z,49.63
2023-04-03T17:42:18.093Z,50.59
2023-04-03T17:44:20.663Z,52.25
2023-04-03T17:46:23.513Z,50.88
2023-04-03T17:48:28.233Z,50.81
2023-04-03T17:50:31.082Z,51.23
2023-04-03T17:52:34.262Z,53.02
2023-04-03T17:54:36.748Z,52.45
2023-04-03T17:56:39.525Z,52.09
2023-04-03T17:58:42.667Z,53.42
2023-04-03T18:00:45.193Z,52.20
2023-04-03T18:02:47.817Z,53.09
2023-04-03T18:04:53.492Z,51.30
2023-04-03T18:06:56.375Z,51.29
2023-04-03T18:09:01.994Z,51.85
2023-04-03T18:11:04.567Z,52.69
2023-04-03T18:13:07.683Z,50.98
2023-04-03T18:15:11.067Z,52.64
2023-04-03T18:17:13.520Z,53.89
2023-04-03T18:21:23.027Z,52.67
2023-04-03T18:23:25.885Z,53.26
2023-04-03T18:25:28.482Z,53.07
2023-04-03T18:27:31.150Z,53.51
2023-04-03T18:29:35.146Z,52.55
2023-04-03T18:31:38.121Z,52.96
2023-04-03T18:33:40.767Z,54.75
2023-04-03T18:35:43.434Z,54.11
2023-04-03T18:37:47.612Z,51.98
2023-04-03T18:39:50.164Z,52.94
2023-04-03T18:41:53.000Z,53.98
2023-04-03T18:43:55.907Z,53.56
2023-04-03T18:45:58.572Z,53.51
2023-04-03T18:48:01.432Z,54.89
2023-04-03T18:50:04.522Z,55.42
2023-04-03T18:52:07.476Z,55.76
2023-04-03T18:54:11.577Z,55.37
2023-04-03T18:56:14.158Z,55.15
2023-04-03T18:58:16.664Z,56.60
2023-04-03T19:00:19.331Z,55.76
2023-04-03T19:02:24.006Z,56.52
2023-04-03T19:04:27.096Z,56.64
2023-04-03T19:06:29.862Z,57.51
2023-04-03T19:08:32.863Z,57.19
2023-04-03T19:10:37.224Z,56.78
2023-04-03T19:12:39.735Z,56.13
2023-04-03T19:14:42.109Z,58.33
2023-04-03T19:16:45.253Z,57.80
2023-04-03T19:18:47.792Z,58.61
2023-04-03T19:20:50.462Z,57.02
2023-04-03T19:22:52.934Z,58.22
2023-04-03T19:24:55.494Z,58.13
2023-04-03T19:26:59.423Z,57.50
2023-04-03T19:29:02.143Z,58.07
2023-04-03T19:31:11.323Z,57.94
2023-04-03T19:33:14.104Z,59.14
2023-04-03T19:35:16.574Z,57.85
2023-04-03T19:37:19.784Z,59.41
2023-04-03T19:39:22.357Z,58.03
2023-04-03T19:41:26.032Z,57.72
2023-04-03T19:43:30.350Z,57.92
2023-04-03T19:45:33.193Z,59.47
2023-04-03T19:47:36.007Z,59.39
2023-04-03T19:49:38.803Z,59.18
2023-04-03T19:51:41.876Z,59.05
2023-04-03T19:53:44.413Z,60.14
2023-04-03T19:55:46.922Z,58.48
2023-04-03T19:57:49.572Z,58.44
2023-04-03T19:59:53.572Z,59.75
2023-04-03T20:01:57.534Z,59.68
2023-04-03T20:04:00.314Z,60.29
2023-04-03T20:06:04.819Z,60.11
2023-04-03T20:08:07.596Z,59.98
2023-04-03T20:10:12.273Z,58.35
2023-04-03T20:12:14.823Z,59.25
2023-04-03T20:14:17.772Z,59.90
2023-04-03T20:16:26.273Z,60.13
2023-04-03T20:18:29.173Z,58.67
2023-04-03T20:20:31.583Z,58.46
2023-04-03T20:22:34.804Z,59.19
2023-04-03T20:24:37.345Z,59.09
2023-04-03T20:26:44.025Z,59.72
2023-04-03T20:28:46.683Z,59.86
2023-04-03T20:30:51.575Z,59.80
2023-04-03T20:32:56.432Z,59.99
2023-04-03T20:35:04.424Z,59.32
2023-04-03T20:37:08.784Z,59.11
2023-04-03T20:39:11.349Z,60.47
2023-04-03T20:41:13.865Z,59.94
2023-04-03T20:43:17.471Z,60.15
2023-04-03T20:45:21.650Z,59.93
2023-04-03T20:47:24.727Z,59.89
2023-04-03T20:49:28.841Z,58.89
2023-04-03T20:51:31.718Z,60.39
2023-04-03T20:53:34.201Z,60.57
2023-04-03T20:55:37.502Z,60.68
2023-04-03T20:57:40.065Z,60.22
2023-04-03T20:59:42.951Z,60.86
2023-04-03T21:01:46.752Z,60.22
2023-04-03T21:03:50.300Z,60.73
2023-04-03T21:05:59.951Z,60.93
2023-04-03T21:08:21.143Z,60.76
2023-04-03T21:10:42.490Z,61.20
2023-04-03T21:13:03.638Z,60.79
2023-04-03T21:15:24.717Z,60.56
2023-04-03T21:17:27.221Z,60.91
2023-04-03T21:19:31.352Z,60.98
2023-04-03T21:21:36.594Z,61.51
2023-04-03T21:23:39.058Z,62.50
2023-04-03T21:25:41.740Z,61.81
2023-04-03T21:27:44.150Z,63.43
2023-04-03T21:29:46.706Z,64.27
2023-04-03T21:31:53.690Z,63.52
2023-04-03T21:33:56.269Z,63.57
2023-04-03T21:36:00.296Z,64.36
2023-04-03T21:38:02.837Z,64.70
2023-04-03T21:40:06.063Z,64.03
2023-04-03T21:42:08.780Z,64.94
2023-04-03T21:44:11.291Z,65.40
2023-04-03T21:46:14.075Z,65.02
2023-04-03T21:48:18.377Z,64.66
2023-04-03T21:50:21.187Z,65.17
2023-04-03T21:52:25.116Z,65.26
2023-04-03T21:54:28.016Z,65.31
2023-04-03T21:56:31.694Z,65.51
2023-04-03T21:58:34.370Z,65.92
2023-04-03T22:00:37.010Z,65.52
2023-04-03T22:02:40.671Z,66.22
2023-04-03T22:04:43.175Z,65.74
2023-04-03T22:06:46.236Z,64.96
2023-04-03T22:08:50.095Z,67.28
2023-04-03T22:10:53.336Z,65.54
2023-04-03T22:12:56.057Z,66.39
2023-04-03T22:14:58.745Z,66.37
2023-04-03T22:17:01.352Z,67.24
2023-04-03T22:19:03.871Z,66.92
2023-04-03T22:21:09.633Z,65.67
2023-04-03T22:23:12.256Z,66.80
2023-04-03T22:25:16.101Z,66.47
2023-04-03T22:27:18.646Z,65.33
2023-04-03T22:29:21.526Z,67.11
2023-04-03T22:31:24.402Z,66.66
2023-04-03T22:33:27.453Z,66.63
2023-04-03T22:35:29.949Z,67.26
2023-04-03T22:37:33.062Z,66.51
2023-04-03T22:39:35.583Z,67.06
2023-04-03T22:41:39.452Z,66.54
2023-04-03T22:43:42.946Z,65.70
2023-04-03T22:45:48.713Z,66.69
2023-04-03T22:47:51.278Z,66.64
2023-04-03T22:49:53.876Z,66.62
2023-04-03T22:51:56.572Z,66.94
2023-04-03T22:53:59.024Z,66.54
2023-04-03T22:56:02.270Z,66.53
2023-04-03T22:58:06.273Z,66.59
2023-04-03T23:00:09.808Z,67.66
2023-04-03T23:02:13.164Z,67.64
2023-04-03T23:04:16.705Z,67.16
2023-04-03T23:06:19.121Z,68.44
2023-04-03T23:08:22.011Z,67.73
2023-04-03T23:10:24.645Z,68.18
2023-04-03T23:12:27.261Z,67.39
2023-04-03T23:14:31.332Z,67.58
2023-04-03T23:16:33.826Z,66.91
2023-04-03T23:18:40.152Z,67.82
2023-04-03T23:20:42.691Z,68.53
2023-04-03T23:22:45.890Z,68.38
2023-04-03T23:24:48.691Z,67.50
2023-04-03T23:26:51.202Z,68.34
2023-04-03T23:28:53.690Z,67.44
2023-04-03T23:31:00.567Z,66.93
2023-04-03T23:33:03.126Z,67.64
2023-04-03T23:35:06.003Z,68.21
2023-04-03T23:37:12.475Z,67.05
2023-04-03T23:39:15.046Z,67.70
2023-04-03T23:41:17.565Z,68.12
2023-04-03T23:43:20.073Z,68.71
2023-04-03T23:45:22.936Z,67.46
2023-04-03T23:47:27.729Z,67.70
2023-04-03T23:49:30.545Z,67.61
2023-04-03T23:51:33.041Z,68.11
2023-04-03T23:53:35.549Z,68.54
2023-04-03T23:55:39.064Z,67.84
2023-04-03T23:57:41.974Z,68.62
2023-04-03T23:59:44.554Z,68.63
